Terminal Aerodrome Forecast
Issued by NWS

Home | Current Version | Previous Version | Text Only | Print | Product List | Glossary On
Versions: 1 2 3 4 5 6 7 8 9 10 11 12 13 14
000
FTUS46 KPDT 051140
TAFALW
TAF
KALW 051140Z 0512/0612 20013KT P6SM SCT040 OVC050
     FM051300 22012G20KT 5SM -RA BR SCT025 OVC040
      TEMPO 0513/0517 3SM RA BR FEW025 BKN035
     FM052100 23013G21KT P6SM VCSH BKN050
     FM060200 20011KT P6SM SCT070 BKN200=

USA.gov is the U.S. government's official web portal to all federal, state and local government web resources and services.